Koksijde, Belgium
Current Conditions -  °F | °C
As of 1:55 AM on Saturday 25 Oct 2014 (Local Time) from EBFN Reporting Station
Broken Clouds Broken Clouds  
Wind Chill: 55°   Ceiling: 1000
Heat Index: 55°   Visibility: 4mi
Dew Point: 55°   Wind: 9mph
Humidity: 100%   Direction: 210°SSW
Pressure: 30"   Gusts: NA
Location:  51.11°N, 2.68°E
Report Text: EBFN 242355Z 21008KT 6000 FEW005 BKN010 BKN025 13/13 Q1016 GRN
Loading
Personal Weather Stations






























Interactive Weather Map
Tropical Storm Tracking
New forecast layout! Learn more

10-Day Weather Forecast

Advertisements
Track Severe Weather on mobile